Time;durP1;ratioP1;P1;durP2;ratioP2;P2;SDS_P1;SDS_P2;PMS_P1;PMS_P2;Temp;Humidity;BMP_temperature;BMP_pressure;BME280_temperature;BME280_humidity;BME280_pressure;Samples;Min_cycle;Max_cycle;Signal;HPM_P1;HPM_P2
2022/05/14 00:01:14;;;;;;;8.45;5.90;;;21.90;99.90;;;;;;5033817;28;20068;-51
2022/05/14 00:03:41;;;;;;;9.85;6.03;;;21.90;99.90;;;;;;5000581;28;20037;-52
2022/05/14 00:06:11;;;;;;;7.82;6.03;;;22.00;99.90;;;;;;5033781;28;20044;-51
2022/05/14 00:08:37;;;;;;;7.22;5.97;;;22.00;99.90;;;;;;5033600;28;20026;-53
2022/05/14 00:13:48;;;;;;;7.55;5.50;;;21.90;99.90;;;;;;5055463;28;20112;-53
2022/05/14 00:16:16;;;;;;;7.38;5.72;;;21.80;99.90;;;;;;5055634;28;20535;-52
2022/05/14 00:18:43;;;;;;;6.57;5.45;;;21.80;99.90;;;;;;5055268;28;20448;-53
2022/05/14 00:21:10;;;;;;;7.20;5.75;;;21.70;99.90;;;;;;5053713;28;20039;-50
2022/05/14 00:23:35;;;;;;;9.15;5.75;;;21.70;99.90;;;;;;5055495;28;20029;-51
2022/05/14 00:26:01;;;;;;;9.13;5.47;;;21.80;99.90;;;;;;5055221;28;20469;-53
2022/05/14 00:28:27;;;;;;;6.82;5.53;;;21.80;99.90;;;;;;5055269;28;20108;-54
2022/05/14 00:30:53;;;;;;;8.15;5.32;;;21.80;99.90;;;;;;5055377;28;20446;-53
2022/05/14 00:33:20;;;;;;;9.25;5.63;;;21.70;99.90;;;;;;5020162;28;20504;-52
2022/05/14 00:35:46;;;;;;;7.35;5.70;;;21.70;99.90;;;;;;5055134;28;20060;-51
2022/05/14 00:38:12;;;;;;;8.55;5.82;;;21.70;99.90;;;;;;5053241;28;20037;-50
2022/05/14 00:40:39;;;;;;;7.85;5.57;;;21.70;99.90;;;;;;5055103;28;20040;-52
2022/05/14 00:43:06;;;;;;;9.30;5.28;;;21.70;99.90;;;;;;5016306;28;20033;-51
2022/05/14 00:45:36;;;;;;;11.50;5.60;;;21.70;99.90;;;;;;5032973;28;20452;-53
2022/05/14 00:48:03;;;;;;;8.10;5.55;;;21.70;99.90;;;;;;5032836;28;20034;-50
2022/05/14 00:50:38;;;;;;;7.10;5.43;;;21.70;99.90;;;;;;5032840;28;20422;-52
2022/05/14 00:53:07;;;;;;;6.72;5.45;;;21.60;99.90;;;;;;5032667;28;20506;-52
2022/05/14 00:55:34;;;;;;;9.63;5.88;;;21.60;99.90;;;;;;5032834;28;20032;-51
2022/05/14 00:58:01;;;;;;;6.82;5.93;;;21.50;99.90;;;;;;5032697;28;20052;-53
2022/05/14 01:00:29;;;;;;;8.57;6.20;;;21.40;99.90;;;;;;4999688;28;20489;-51
2022/05/14 01:02:55;;;;;;;8.48;6.40;;;21.40;99.90;;;;;;5032482;28;20049;-52
2022/05/14 01:05:23;;;;;;;7.88;6.25;;;21.30;99.90;;;;;;5032706;28;20029;-51
2022/05/14 01:07:52;;;;;;;10.60;6.30;;;21.20;99.90;;;;;;5032591;28;20037;-52
2022/05/14 01:10:20;;;;;;;9.02;6.95;;;21.20;99.90;;;;;;5032482;28;20108;-52
2022/05/14 01:12:58;;;;;;;10.18;6.53;;;21.20;99.90;;;;;;5002046;28;20528;-53
2022/05/14 01:15:48;;;;;;;6.60;5.95;;;21.10;99.90;;;;;;5053221;28;20411;-53
2022/05/14 01:18:14;;;;;;;8.25;6.20;;;21.20;99.90;;;;;;5054217;28;20047;-52
2022/05/14 01:20:40;;;;;;;11.00;7.53;;;21.10;99.90;;;;;;5054471;28;20550;-50
2022/05/14 01:26:31;;;;;;;11.05;6.05;;;21.10;99.90;;;;;;5012158;28;20092;-51
2022/05/14 01:29:02;;;;;;;7.00;5.75;;;21.20;99.90;;;;;;5028627;28;20498;-51
2022/05/14 01:31:28;;;;;;;7.57;6.30;;;21.10;99.90;;;;;;5012362;28;20030;-52
2022/05/14 01:33:58;;;;;;;7.03;6.32;;;21.10;99.90;;;;;;5012255;28;20030;-53
2022/05/14 01:36:23;;;;;;;7.47;5.32;;;21.10;99.90;;;;;;5012324;28;20141;-53
2022/05/14 01:38:49;;;;;;;6.88;5.90;;;21.10;99.90;;;;;;5012090;28;20604;-51
2022/05/14 01:41:15;;;;;;;8.27;6.10;;;21.10;99.90;;;;;;4995769;28;20062;-52
2022/05/14 01:43:41;;;;;;;9.27;5.80;;;21.10;99.90;;;;;;5012243;28;20453;-52
2022/05/14 01:46:07;;;;;;;10.48;6.70;;;21.00;99.90;;;;;;5012129;28;20033;-53
2022/05/14 01:48:33;;;;;;;8.93;6.18;;;21.00;99.90;;;;;;5012037;28;20648;-53
2022/05/14 01:50:59;;;;;;;7.85;6.28;;;20.90;99.90;;;;;;5011903;28;20374;-50
2022/05/14 01:53:25;;;;;;;7.47;6.15;;;20.90;99.90;;;;;;5011953;28;20041;-53
2022/05/14 01:55:51;;;;;;;11.20;6.03;;;20.80;99.90;;;;;;5011865;28;20042;-52
2022/05/14 02:01:06;;;;;;;9.68;5.90;;;20.80;99.90;;;;;;5022471;28;20039;-51
2022/05/14 02:03:31;;;;;;;10.77;6.20;;;20.80;99.90;;;;;;5052597;28;20108;-51
2022/05/14 02:05:57;;;;;;;8.52;6.25;;;20.70;99.90;;;;;;5053354;28;20453;-53
2022/05/14 02:08:23;;;;;;;16.45;6.20;;;20.70;99.90;;;;;;5053494;28;20029;-51
2022/05/14 02:10:48;;;;;;;8.52;5.78;;;20.70;99.90;;;;;;5051586;28;20041;-53
2022/05/14 02:13:14;;;;;;;6.95;5.38;;;20.80;99.90;;;;;;5053252;28;20163;-52
2022/05/14 02:15:40;;;;;;;7.80;5.47;;;20.70;99.90;;;;;;5052442;28;20029;-53
2022/05/14 02:18:06;;;;;;;9.13;5.38;;;20.70;99.90;;;;;;5049493;28;20037;-51
2022/05/14 02:20:31;;;;;;;7.85;5.63;;;20.60;99.90;;;;;;5052142;28;20433;-53
2022/05/14 02:22:57;;;;;;;8.07;5.20;;;20.60;99.90;;;;;;5052610;28;20159;-52
2022/05/14 02:25:23;;;;;;;8.90;6.97;;;20.60;99.90;;;;;;5053409;28;20507;-52
2022/05/14 02:27:48;;;;;;;6.22;5.25;;;20.60;99.90;;;;;;5052504;28;20070;-51
2022/05/14 02:30:15;;;;;;;6.75;5.95;;;20.60;99.90;;;;;;5052698;28;20036;-51
2022/05/14 02:32:40;;;;;;;7.32;5.25;;;20.60;99.90;;;;;;5053120;28;20029;-52
2022/05/14 02:35:06;;;;;;;9.63;5.05;;;20.60;99.90;;;;;;5052733;28;20358;-52
2022/05/14 02:37:32;;;;;;;6.65;5.32;;;20.70;99.90;;;;;;5052950;28;20025;-51
2022/05/14 02:39:58;;;;;;;10.15;5.57;;;20.60;99.90;;;;;;5052967;28;20083;-50
2022/05/14 02:42:24;;;;;;;7.25;5.20;;;20.60;99.90;;;;;;5034501;28;20037;-50
2022/05/14 02:44:50;;;;;;;8.43;4.95;;;20.60;99.90;;;;;;5052043;28;20051;-50
2022/05/14 02:47:17;;;;;;;9.75;4.50;;;20.70;99.90;;;;;;5052032;28;20020;-51
2022/05/14 02:49:43;;;;;;;5.85;4.57;;;20.70;99.90;;;;;;5033824;28;20036;-49
2022/05/14 02:52:10;;;;;;;7.30;5.47;;;20.70;99.90;;;;;;5051899;28;20053;-52
2022/05/14 02:54:37;;;;;;;8.80;5.30;;;20.80;99.90;;;;;;5052809;28;20115;-55
2022/05/14 02:57:03;;;;;;;11.13;5.65;;;20.70;99.90;;;;;;5052945;28;20025;-54
2022/05/14 02:59:29;;;;;;;7.05;5.25;;;20.80;99.90;;;;;;5034406;28;20054;-55
2022/05/14 03:01:56;;;;;;;6.65;5.03;;;20.80;99.90;;;;;;5051263;28;20480;-54
2022/05/14 03:04:25;;;;;;;11.25;4.85;;;20.70;99.90;;;;;;5042904;28;20402;-53
2022/05/14 03:06:53;;;;;;;7.95;5.18;;;20.70;99.90;;;;;;5057876;28;20119;-54
2022/05/14 03:09:19;;;;;;;15.40;6.35;;;20.70;99.90;;;;;;5057738;28;20048;-54
2022/05/14 03:11:45;;;;;;;8.35;5.75;;;20.70;99.90;;;;;;5050914;28;20037;-53
2022/05/14 03:14:12;;;;;;;9.70;6.10;;;20.70;99.90;;;;;;5050845;28;20507;-54
2022/05/14 03:16:39;;;;;;;6.93;5.60;;;20.70;99.90;;;;;;5033538;28;20076;-54
2022/05/14 03:19:05;;;;;;;8.07;5.60;;;20.70;99.90;;;;;;5050621;28;20036;-55
2022/05/14 03:21:31;;;;;;;7.40;5.90;;;20.70;99.90;;;;;;5050627;28;20039;-55
2022/05/14 03:23:57;;;;;;;7.78;6.15;;;20.70;99.90;;;;;;5050738;28;20053;-55
2022/05/14 03:26:22;;;;;;;10.38;6.15;;;20.70;99.90;;;;;;5050725;28;20033;-55
2022/05/14 03:28:48;;;;;;;12.82;6.32;;;20.60;99.90;;;;;;5050536;28;20029;-55
2022/05/14 03:31:15;;;;;;;15.32;6.05;;;20.70;99.90;;;;;;5050576;28;20033;-55
2022/05/14 03:33:40;;;;;;;8.05;6.10;;;20.60;99.90;;;;;;5050698;28;20033;-55
2022/05/14 03:36:08;;;;;;;12.48;6.43;;;;;;;;;;5034014;28;20033;-55
2022/05/14 03:38:35;;;;;;;8.35;6.10;;;20.60;99.90;;;;;;5052179;28;20076;-55
2022/05/14 03:41:01;;;;;;;8.45;6.75;;;20.50;99.90;;;;;;5052587;28;20029;-55
2022/05/14 03:43:27;;;;;;;8.75;7.35;;;20.50;99.90;;;;;;5052546;28;20029;-55
2022/05/14 03:45:52;;;;;;;9.50;6.57;;;20.40;99.90;;;;;;5052849;28;20071;-55
2022/05/14 03:48:18;;;;;;;10.48;6.90;;;20.30;99.90;;;;;;5053435;28;20017;-54
2022/05/14 03:50:44;;;;;;;9.32;6.22;;;20.40;99.90;;;;;;5054386;28;20400;-55
2022/05/14 03:53:10;;;;;;;7.95;5.93;;;20.30;99.90;;;;;;5055902;28;20521;-55
2022/05/14 03:55:36;;;;;;;12.35;7.30;;;20.30;99.90;;;;;;5054304;28;20041;-55
2022/05/14 03:58:02;;;;;;;8.55;6.40;;;20.40;99.90;;;;;;5055973;28;20110;-55
2022/05/14 04:00:27;;;;;;;9.48;6.15;;;20.30;99.90;;;;;;5055845;28;20104;-55
2022/05/14 04:02:53;;;;;;;9.32;6.30;;;20.30;99.90;;;;;;5055703;28;20029;-55
2022/05/14 04:05:19;;;;;;;6.93;6.07;;;20.30;99.90;;;;;;5055770;28;20025;-55
2022/05/14 04:07:46;;;;;;;7.38;6.15;;;20.30;99.90;;;;;;5055855;28;20036;-54
2022/05/14 04:10:12;;;;;;;12.45;6.78;;;20.30;99.90;;;;;;5055825;28;20088;-55
2022/05/14 04:12:39;;;;;;;9.50;6.45;;;20.20;99.90;;;;;;5055708;28;20021;-54
2022/05/14 04:15:06;;;;;;;11.05;7.35;;;20.20;99.90;;;;;;5055866;28;20025;-55
2022/05/14 04:17:32;;;;;;;7.28;6.47;;;20.20;99.90;;;;;;5053626;28;20127;-55
2022/05/14 04:19:57;;;;;;;7.63;5.95;;;20.10;99.90;;;;;;5055650;28;20144;-55
2022/05/14 04:22:23;;;;;;;8.80;6.00;;;20.20;99.90;;;;;;5055433;28;20461;-54
2022/05/14 04:24:49;;;;;;;9.65;6.10;;;20.20;99.90;;;;;;5055506;28;20028;-55
2022/05/14 04:27:15;;;;;;;9.63;6.53;;;20.30;99.90;;;;;;5055628;28;20039;-54
2022/05/14 04:29:40;;;;;;;8.45;6.03;;;20.30;99.90;;;;;;5055350;28;20044;-54
2022/05/14 04:32:07;;;;;;;7.78;5.75;;;20.30;99.90;;;;;;5055440;28;20462;-55
2022/05/14 04:34:32;;;;;;;6.65;5.90;;;20.20;99.90;;;;;;5020296;28;20473;-55
2022/05/14 04:36:58;;;;;;;10.15;6.47;;;20.20;99.90;;;;;;5036971;28;20050;-54
2022/05/14 04:39:31;;;;;;;10.38;5.88;;;20.20;99.90;;;;;;5055194;28;20381;-55
2022/05/14 04:42:02;;;;;;;8.45;5.55;;;20.30;99.90;;;;;;5055305;28;20033;-55
2022/05/14 04:44:28;;;;;;;8.60;6.05;;;20.40;99.90;;;;;;5055196;28;20060;-55
2022/05/14 04:46:54;;;;;;;11.88;6.53;;;20.40;99.90;;;;;;5055109;28;20033;-55
2022/05/14 04:49:20;;;;;;;9.95;6.65;;;20.50;99.90;;;;;;5055114;28;20055;-55
2022/05/14 04:51:46;;;;;;;9.15;5.97;;;20.60;99.90;;;;;;5055013;28;20068;-55
2022/05/14 04:54:13;;;;;;;8.95;6.22;;;20.60;99.90;;;;;;5055413;28;20053;-55
2022/05/14 04:56:38;;;;;;;9.60;6.53;;;20.70;99.90;;;;;;5054884;28;20035;-54
2022/05/14 04:59:04;;;;;;;9.68;6.38;;;20.70;99.90;;;;;;5054401;28;20025;-55
2022/05/14 05:01:30;;;;;;;10.48;6.32;;;20.70;99.90;;;;;;5054221;28;20021;-55
2022/05/14 05:03:58;;;;;;;10.13;6.72;;;20.70;99.90;;;;;;5054782;28;20029;-55
2022/05/14 05:06:24;;;;;;;13.90;6.20;;;20.70;99.90;;;;;;5052993;28;20481;-54
2022/05/14 05:08:52;;;;;;;6.82;6.13;;;20.70;99.90;;;;;;5054674;28;20025;-55
2022/05/14 05:11:23;;;;;;;9.10;6.60;;;20.80;99.90;;;;;;5054817;28;20461;-55
2022/05/14 05:13:49;;;;;;;7.20;5.35;;;20.80;99.90;;;;;;5054460;28;20059;-54
2022/05/14 05:16:15;;;;;;;7.88;5.57;;;20.70;99.90;;;;;;5054687;28;20040;-55
2022/05/14 05:18:41;;;;;;;5.50;4.43;;;20.60;99.90;;;;;;5035990;28;20037;-55
2022/05/14 05:21:07;;;;;;;5.90;4.93;;;20.50;99.90;;;;;;5052606;28;20119;-55
2022/05/14 05:23:34;;;;;;;10.25;5.47;;;20.40;99.90;;;;;;5054413;28;20041;-55
2022/05/14 05:26:00;;;;;;;6.78;5.53;;;20.40;99.90;;;;;;5054348;28;20025;-55
2022/05/14 05:28:28;;;;;;;14.65;5.40;;;20.40;99.90;;;;;;5054250;28;20017;-55
2022/05/14 05:30:54;;;;;;;7.43;5.25;;;20.50;99.90;;;;;;5054364;28;20116;-55
2022/05/14 05:33:22;;;;;;;7.18;4.90;;;20.50;99.90;;;;;;5054123;28;20032;-54
2022/05/14 05:35:48;;;;;;;8.30;5.57;;;20.50;99.90;;;;;;5054259;28;20503;-55
2022/05/14 05:38:14;;;;;;;7.20;4.70;;;20.60;99.90;;;;;;5052407;28;20041;-55
2022/05/14 05:40:41;;;;;;;8.68;5.05;;;20.50;99.90;;;;;;5053995;28;20470;-55
2022/05/14 05:43:08;;;;;;;6.78;5.15;;;20.50;99.90;;;;;;5053062;28;20071;-54
2022/05/14 05:45:35;;;;;;;8.25;4.90;;;20.40;99.90;;;;;;5053593;28;20436;-55
2022/05/14 05:48:01;;;;;;;5.65;4.70;;;20.50;99.90;;;;;;5053632;28;20025;-55
2022/05/14 05:50:27;;;;;;;11.45;6.07;;;20.60;99.90;;;;;;5053952;28;20032;-55
2022/05/14 05:52:54;;;;;;;6.22;5.35;;;20.70;99.90;;;;;;5051771;28;20408;-54
2022/05/14 05:58:05;;;;;;;7.45;5.00;;;20.90;99.90;;;;;;5053975;28;20086;-55
2022/05/14 06:00:32;;;;;;;5.63;4.20;;;21.00;99.90;;;;;;5035459;28;20128;-54
2022/05/14 06:02:59;;;;;;;6.35;4.57;;;21.00;99.90;;;;;;5053494;28;20039;-55
2022/05/14 06:05:26;;;;;;;8.20;5.18;;;21.00;99.90;;;;;;5053663;28;20033;-55
2022/05/14 06:07:52;;;;;;;7.15;5.30;;;21.00;99.90;;;;;;5053664;28;20025;-55
2022/05/14 06:10:21;;;;;;;7.50;3.85;;;21.00;99.90;;;;;;5053600;28;20025;-55
2022/05/14 06:12:47;;;;;;;9.88;3.83;;;20.90;99.90;;;;;;5053131;28;20021;-55
2022/05/14 06:15:16;;;;;;;9.48;3.95;;;21.00;99.90;;;;;;5053422;28;20055;-55
2022/05/14 06:17:45;;;;;;;7.07;4.20;;;21.00;99.90;;;;;;5053497;28;20025;-55
2022/05/14 06:20:13;;;;;;;9.35;4.57;;;21.00;99.90;;;;;;5053471;28;20094;-54
2022/05/14 06:22:39;;;;;;;8.70;4.15;;;21.10;99.90;;;;;;5053489;28;20128;-55
2022/05/14 06:25:06;;;;;;;8.70;4.45;;;21.10;99.90;;;;;;5053384;28;20123;-54
2022/05/14 06:27:33;;;;;;;8.13;4.45;;;20.90;99.90;;;;;;5034817;28;20070;-54
2022/05/14 06:29:58;;;;;;;9.98;5.40;;;20.90;99.90;;;;;;5053521;28;20393;-55
2022/05/14 06:32:24;;;;;;;6.35;4.22;;;21.10;99.90;;;;;;5035133;28;20033;-55
2022/05/14 06:34:50;;;;;;;6.53;2.70;;;21.10;99.90;;;;;;5051367;28;20120;-55
2022/05/14 06:37:16;;;;;;;9.30;5.05;;;20.90;99.90;;;;;;5053214;28;20029;-54
2022/05/14 06:39:42;;;;;;;7.57;4.10;;;21.10;99.90;;;;;;5051289;28;20147;-55
2022/05/14 06:42:09;;;;;;;7.75;4.72;;;21.20;99.90;;;;;;5051578;28;20033;-54
2022/05/14 06:44:35;;;;;;;4.88;3.85;;;21.10;99.90;;;;;;5053240;28;20433;-54
2022/05/14 06:47:01;;;;;;;6.13;4.45;;;21.20;99.90;;;;;;5053034;28;20091;-55
2022/05/14 06:49:27;;;;;;;7.00;4.60;;;21.40;99.90;;;;;;5052982;28;20027;-55
2022/05/14 06:51:56;;;;;;;8.07;3.78;;;21.50;99.90;;;;;;5052973;28;20045;-55
2022/05/14 06:54:21;;;;;;;4.55;3.58;;;21.70;99.90;;;;;;5051505;28;20477;-55
2022/05/14 06:56:47;;;;;;;7.13;3.75;;;21.60;99.90;;;;;;5051247;28;20036;-55
2022/05/14 06:59:16;;;;;;;4.80;3.60;;;21.90;99.90;;;;;;5052954;28;20032;-54
2022/05/14 07:01:44;;;;;;;7.28;3.67;;;21.90;99.90;;;;;;5052915;28;20035;-54
2022/05/14 07:06:58;;;;;;;8.75;4.15;;;22.00;99.90;;;;;;5053468;28;20131;-55
2022/05/14 07:09:34;;;;;;;8.35;4.25;;;22.30;99.90;;;;;;5052816;28;20115;-56
2022/05/14 07:12:10;;;;;;;7.22;4.13;;;22.40;99.90;;;;;;5030725;28;20530;-56
2022/05/14 07:14:40;;;;;;;6.05;4.10;;;22.40;99.90;;;;;;5015145;28;20420;-54
2022/05/14 07:17:08;;;;;;;4.20;3.20;;;22.50;99.90;;;;;;5014302;28;20440;-55
2022/05/14 07:19:35;;;;;;;4.95;3.83;;;22.20;99.90;;;;;;4991000;28;20145;-55
2022/05/14 07:22:01;;;;;;;5.68;3.58;;;22.40;99.90;;;;;;4991400;28;20506;-54
2022/05/14 07:24:29;;;;;;;7.75;4.32;;;22.10;99.90;;;;;;4994222;28;20037;-54
2022/05/14 07:26:58;;;;;;;10.65;4.78;;;22.00;99.90;;;;;;4995118;28;20034;-54
2022/05/14 07:29:25;;;;;;;5.57;3.17;;;22.00;99.90;;;;;;4995022;28;20042;-54
2022/05/14 07:31:52;;;;;;;5.50;4.28;;;22.30;99.90;;;;;;4995070;28;20069;-55
2022/05/14 07:34:18;;;;;;;7.10;4.38;;;22.50;99.90;;;;;;4995062;28;20388;-55
2022/05/14 07:36:57;;;;;;;4.78;3.47;;;22.40;99.90;;;;;;4995279;28;20045;-55
2022/05/14 07:39:26;;;;;;;4.63;3.40;;;22.50;99.90;;;;;;4994779;28;20043;-55
2022/05/14 07:41:56;;;;;;;6.03;4.03;;;22.60;99.90;;;;;;4994832;28;20486;-54
2022/05/14 07:44:25;;;;;;;9.50;3.75;;;22.90;99.90;;;;;;4994873;28;20065;-54
2022/05/14 07:46:52;;;;;;;6.53;3.90;;;23.00;99.90;;;;;;4994476;28;20036;-55
2022/05/14 07:49:21;;;;;;;9.98;4.22;;;23.00;99.90;;;;;;4978549;28;20038;-55
2022/05/14 07:51:47;;;;;;;5.45;4.28;;;23.00;99.90;;;;;;5033615;28;20045;-54
2022/05/14 07:54:12;;;;;;;10.07;3.03;;;23.00;99.90;;;;;;5017441;28;20053;-55
2022/05/14 07:56:39;;;;;;;7.50;4.60;;;23.10;99.90;;;;;;5034020;28;20021;-54
2022/05/14 07:59:05;;;;;;;6.22;3.78;;;23.50;99.90;;;;;;5017475;28;20045;-55
2022/05/14 08:01:33;;;;;;;4.88;2.90;;;23.70;99.90;;;;;;5001587;28;20409;-55
2022/05/14 08:03:58;;;;;;;5.40;4.05;;;23.50;99.90;;;;;;5055254;28;20031;-54
2022/05/14 08:06:24;;;;;;;9.65;4.05;;;23.80;99.90;;;;;;5037284;28;20039;-55
2022/05/14 08:08:54;;;;;;;6.43;4.05;;;24.00;99.90;;;;;;5055076;28;20424;-55
2022/05/14 08:11:20;;;;;;;5.60;3.70;;;23.80;99.90;;;;;;5054402;28;20029;-55
2022/05/14 08:13:46;;;;;;;5.68;4.22;;;24.10;99.90;;;;;;5070693;28;20033;-55
2022/05/14 08:16:12;;;;;;;8.73;4.30;;;24.40;99.90;;;;;;5053399;28;20028;-56
2022/05/14 08:18:38;;;;;;;5.47;3.20;;;24.30;99.90;;;;;;5054435;28;20043;-55
2022/05/14 08:26:34;;;;;;;4.95;2.95;;;24.40;99.90;;;;;;5056004;28;20102;-55
2022/05/14 08:29:00;;;;;;;19.63;3.70;;;24.60;99.90;;;;;;5055362;28;20033;-56
2022/05/14 08:31:25;;;;;;;3.95;2.72;;;24.70;99.90;;;;;;5055581;28;20021;-56
2022/05/14 08:33:51;;;;;;;6.68;2.60;;;24.70;99.90;;;;;;5055518;28;20435;-56
2022/05/14 08:36:17;;;;;;;7.45;3.17;;;24.50;99.90;;;;;;5055393;28;20025;-56
2022/05/14 08:38:43;;;;;;;8.55;4.10;;;24.50;99.90;;;;;;5069937;28;20370;-56
2022/05/14 08:41:09;;;;;;;5.65;3.10;;;;;;;;;;5055259;28;20495;-56
2022/05/14 08:43:54;;;;;;;4.88;3.00;;;24.90;99.90;;;;;;5053276;28;20033;-54
2022/05/14 08:46:23;;;;;;;6.35;3.00;;;25.10;99.90;;;;;;5055287;28;20037;-54
2022/05/14 08:48:59;;;;;;;6.82;2.75;;;25.10;99.90;;;;;;5051019;28;20033;-56
2022/05/14 08:51:30;;;;;;;5.05;3.25;;;24.80;99.90;;;;;;5052686;28;20097;-55
2022/05/14 08:53:56;;;;;;;5.45;2.88;;;24.90;99.90;;;;;;5054354;28;20041;-55
2022/05/14 08:56:43;;;;;;;4.00;2.80;;;24.80;99.90;;;;;;5054427;28;20027;-55
2022/05/14 08:59:37;;;;;;;5.80;3.38;;;24.80;99.90;;;;;;5049313;28;20118;-55
2022/05/14 09:02:19;;;;;;;11.75;3.80;;;25.20;99.90;;;;;;5051684;28;20033;-56
2022/05/14 09:04:45;;;;;;;4.30;2.70;;;25.60;99.90;;;;;;5054730;28;20086;-56
2022/05/14 09:07:12;;;;;;;14.65;8.13;;;;;;;;;;5054677;28;20025;-56
2022/05/14 09:09:53;;;;;;;6.57;2.80;;;25.70;99.90;;;;;;5053367;28;20549;-56
2022/05/14 09:12:26;;;;;;;7.20;3.30;;;25.90;99.90;;;;;;5053259;28;20029;-56
2022/05/14 09:14:55;;;;;;;11.68;3.20;;;25.80;99.90;;;;;;5054743;28;20033;-56
2022/05/14 09:17:24;;;;;;;7.00;3.28;;;25.60;99.90;;;;;;5054437;28;20063;-56
2022/05/14 09:19:53;;;;;;;5.35;3.13;;;25.60;99.90;;;;;;5054210;28;20492;-56
2022/05/14 09:22:27;;;;;;;5.40;2.60;;;;;;;;;;5054353;28;20071;-55
2022/05/14 09:24:59;;;;;;;8.15;2.90;;;;;;;;;;5054391;28;20103;-55
2022/05/14 09:27:30;;;;;;;6.35;2.70;;;;;;;;;;5054397;28;20413;-56
2022/05/14 09:29:59;;;;;;;5.40;2.70;;;;;;;;;;5054270;28;20025;-56
2022/05/14 09:32:28;;;;;;;5.65;2.65;;;;;;;;;;5054373;28;20028;-56
2022/05/14 09:35:19;;;;;;;8.05;2.85;;;26.90;99.90;;;;;;5054230;28;20036;-55
2022/05/14 09:37:46;;;;;;;4.10;2.80;;;;;;;;;;5054092;28;20082;-57
2022/05/14 09:40:14;;;;;;;7.28;2.88;;;;;;;;;;5052741;28;20047;-57
2022/05/14 09:43:07;;;;;;;4.82;3.17;;;;;;;;;;5054244;28;20055;-57
2022/05/14 09:45:34;;;;;;;6.25;2.58;;;;;;;;;;5051754;28;20037;-56
2022/05/14 09:48:11;;;;;;;4.45;3.13;;;;;;;;;;5054244;28;20029;-56
2022/05/14 09:50:40;;;;;;;5.40;2.80;;;27.70;99.90;;;;;;5054129;28;20380;-57
2022/05/14 09:53:07;;;;;;;5.07;2.72;;;27.20;99.90;;;;;;5053717;28;20074;-56
2022/05/14 09:56:10;;;;;;;9.02;3.30;;;27.20;99.90;;;;;;5053756;28;20081;-56
2022/05/14 09:58:47;;;;;;;5.15;2.80;;;;;;;;;;5052500;28;20131;-58
2022/05/14 10:01:32;;;;;;;5.20;2.85;;;27.70;99.90;;;;;;5053686;28;20035;-56
2022/05/14 10:04:18;;;;;;;4.95;2.88;;;27.50;99.90;;;;;;5053619;28;20033;-56
2022/05/14 10:06:56;;;;;;;5.82;3.00;;;27.70;99.90;;;;;;5051682;28;20039;-56
2022/05/14 10:09:36;;;;;;;5.10;3.13;;;27.70;99.90;;;;;;5051541;28;20119;-56
2022/05/14 10:12:15;;;;;;;5.60;3.08;;;27.70;99.90;;;;;;5052980;28;20040;-56
2022/05/14 10:14:43;;;;;;;4.18;3.17;;;27.70;99.90;;;;;;5052986;28;20094;-56
2022/05/14 10:17:10;;;;;;;6.10;2.78;;;;;;;;;;5052427;28;20074;-56
2022/05/14 10:20:11;;;;;;;4.50;2.30;;;28.10;99.90;;;;;;5053355;28;20130;-56
2022/05/14 10:29:12;;;;;;;8.48;2.97;;;;;;;;;;4933995;29;20051;-56
2022/05/14 10:31:52;;;;;;;8.27;3.35;;;;;;;;;;4934138;29;20028;-56
2022/05/14 10:34:22;;;;;;;5.65;2.83;;;;;;;;;;4934249;29;20040;-57
2022/05/14 10:36:54;;;;;;;5.20;3.03;;;27.90;99.90;;;;;;4934145;29;20105;-56
2022/05/14 10:39:32;;;;;;;5.60;2.75;;;27.60;99.90;;;;;;4933870;29;20056;-56
2022/05/14 10:42:10;;;;;;;13.15;6.93;;;27.90;99.90;;;;;;4934291;29;20048;-58
2022/05/14 10:44:41;;;;;;;11.38;6.45;;;;;;;;;;4933983;29;20137;-58
2022/05/14 10:47:09;;;;;;;6.20;3.55;;;;;;;;;;4934064;29;20044;-58
2022/05/14 10:49:42;;;;;;;6.75;3.63;;;28.90;99.90;;;;;;4914905;29;20512;-57
2022/05/14 10:52:15;;;;;;;7.28;4.32;;;28.50;99.90;;;;;;4899251;29;20044;-57
2022/05/14 10:54:45;;;;;;;6.57;2.75;;;28.70;99.90;;;;;;4914838;29;20048;-57
2022/05/14 10:57:13;;;;;;;3.60;2.40;;;28.90;99.90;;;;;;4915770;29;20032;-58
2022/05/14 10:59:46;;;;;;;5.95;5.13;;;28.70;99.90;;;;;;4918792;29;20048;-57
2022/05/14 11:02:31;;;;;;;5.43;3.75;;;28.70;99.90;;;;;;4919033;29;20044;-57
2022/05/14 11:04:57;;;;;;;61.53;28.67;;;28.60;99.90;;;;;;4936450;28;20046;-58
2022/05/14 11:07:31;;;;;;;97.95;45.85;;;28.80;99.90;;;;;;5015081;28;20038;-57
2022/05/14 11:10:07;;;;;;;3.40;2.70;;;29.00;99.90;;;;;;5015120;28;20038;-57
2022/05/14 11:12:34;;;;;;;6.50;2.75;;;28.70;99.80;;;;;;5014998;28;20041;-57
2022/05/14 11:15:02;;;;;;;9.43;2.75;;;28.30;99.80;;;;;;5015095;28;20525;-58
2022/05/14 11:17:29;;;;;;;7.32;3.30;;;28.40;99.90;;;;;;5014978;28;20037;-58
2022/05/14 11:20:07;;;;;;;4.47;2.58;;;;;;;;;;5024942;28;20053;-58
2022/05/14 11:22:46;;;;;;;3.15;2.25;;;;;;;;;;5056954;28;20052;-58
2022/05/14 11:25:21;;;;;;;8.40;3.10;;;;;;;;;;5056681;28;20090;-58
2022/05/14 11:28:08;;;;;;;3.85;2.90;;;;;;;;;;5056629;28;20021;-58
2022/05/14 11:30:39;;;;;;;4.20;2.67;;;;;;;;;;5056751;28;20040;-58
2022/05/14 11:33:05;;;;;;;;;;;;;;;;;;5057201;28;20033;-58
2022/05/14 11:35:42;;;;;;;3.55;1.98;;;;;;;;;;5056444;28;19909;-58
2022/05/14 11:38:24;;;;;;;3.00;2.00;;;;;;;;;;5056333;28;20404;-58
2022/05/14 11:41:04;;;;;;;4.68;1.90;;;;;;;;;;5056569;28;20082;-59
2022/05/14 11:43:31;;;;;;;4.28;2.05;;;;;;;;;;5056329;28;20029;-59
2022/05/14 11:46:03;;;;;;;4.88;2.83;;;;;;;;;;5054459;28;20056;-58
2022/05/14 11:48:33;;;;;;;7.22;2.00;;;;;;;;;;5056192;28;20490;-58
2022/05/14 11:51:06;;;;;;;4.90;2.30;;;;;;;;;;5055985;28;20039;-58
2022/05/14 11:53:35;;;;;;;6.15;2.75;;;;;;;;;;5013554;28;20038;-58
2022/05/14 11:56:06;;;;;;;4.82;2.20;;;;;;;;;;5013469;28;20045;-58
2022/05/14 11:58:36;;;;;;;3.67;2.30;;;30.30;93.50;;;;;;5012391;28;20041;-59
2022/05/14 12:01:12;;;;;;;4.40;2.65;;;30.50;93.60;;;;;;5014130;28;20279;-58
2022/05/14 12:03:43;;;;;;;3.70;2.38;;;30.40;92.50;;;;;;4981634;28;20073;-59
2022/05/14 12:06:48;;;;;;;6.68;2.20;;;30.20;91.10;;;;;;5012811;28;20124;-59
2022/05/14 12:09:22;;;;;;;6.88;2.20;;;30.20;92.50;;;;;;5011996;28;20069;-59
2022/05/14 12:11:48;;;;;;;3.35;1.70;;;29.90;90.90;;;;;;5013885;28;20491;-59
2022/05/14 12:14:20;;;;;;;4.68;2.10;;;29.80;90.00;;;;;;5013009;28;20042;-59
2022/05/14 12:16:49;;;;;;;;;;;30.10;90.90;;;;;;5013048;28;20529;-60
2022/05/14 12:19:39;;;;;;;5.45;2.40;;;29.80;88.90;;;;;;5052759;28;19916;-59
2022/05/14 12:22:07;;;;;;;4.80;2.42;;;30.60;90.50;;;;;;5011506;28;20397;-59
2022/05/14 12:24:35;;;;;;;4.55;1.80;;;30.40;91.00;;;;;;5011657;28;20038;-59
2022/05/14 12:27:01;;;;;;;6.88;2.03;;;30.40;90.50;;;;;;5012477;28;20041;-59
2022/05/14 12:29:33;;;;;;;4.18;1.95;;;30.60;90.80;;;;;;4992904;28;20041;-60
2022/05/14 12:34:56;;;;;;;3.60;1.90;;;30.90;89.90;;;;;;5011607;28;20040;-59
2022/05/14 12:37:33;;;;;;;4.47;1.50;;;30.40;88.10;;;;;;5009721;28;20044;-59
2022/05/14 12:39:59;;;;;;;31.67;5.03;;;30.40;86.70;;;;;;5013153;28;20054;-59
2022/05/14 12:42:36;;;;;;;5.18;2.40;;;30.60;87.20;;;;;;5004656;28;20641;-59
2022/05/14 12:45:03;;;;;;;3.85;1.75;;;30.30;88.00;;;;;;5012410;28;20042;-59
2022/05/14 12:47:31;;;;;;;4.13;1.60;;;30.90;87.80;;;;;;4991829;28;20050;-59
2022/05/14 12:49:58;;;;;;;6.88;1.80;;;;;;;;;;4990716;28;20062;-59
2022/05/14 12:52:31;;;;;;;4.90;2.05;;;31.10;97.70;;;;;;4990462;28;20046;-59
2022/05/14 12:55:12;;;;;;;3.38;1.73;;;;;;;;;;4991437;28;20030;-58
2022/05/14 12:57:43;;;;;;;4.53;2.00;;;31.60;99.90;;;;;;4975493;28;20046;-58
2022/05/14 13:00:11;;;;;;;3.97;1.75;;;31.10;99.90;;;;;;5015910;28;20397;-59
2022/05/14 13:02:47;;;;;;;3.08;1.75;;;31.10;98.60;;;;;;4982989;28;20060;-58
2022/05/14 13:05:22;;;;;;;3.58;1.73;;;31.00;96.90;;;;;;5029700;28;20540;-59
2022/05/14 13:07:52;;;;;;;3.28;1.70;;;31.20;96.10;;;;;;5031423;28;20049;-58
2022/05/14 13:10:25;;;;;;;2.95;1.70;;;;;;;;;;5031590;28;20025;-58
2022/05/14 13:12:53;;;;;;;7.70;1.80;;;;;;;;;;5031405;28;20501;-58
2022/05/14 13:15:20;;;;;;;3.00;1.63;;;;;;;;;;5031482;28;20034;-58
2022/05/14 13:17:46;;;;;;;5.20;1.60;;;;;;;;;;5035177;28;20382;-58
2022/05/14 13:20:20;;;;;;;2.92;1.85;;;;;;;;;;5052835;28;20116;-58
2022/05/14 13:22:46;;;;;;;4.82;1.60;;;;;;;;;;5053465;28;20032;-59
2022/05/14 13:25:31;;;;;;;4.07;1.80;;;;;;;;;;5053401;28;20025;-59
2022/05/14 13:28:08;;;;;;;3.65;1.95;;;;;;;;;;5052936;28;20064;-59
2022/05/14 13:30:35;;;;;;;4.28;1.70;;;;;;;;;;5053585;28;20033;-58
2022/05/14 13:33:09;;;;;;;3.22;2.10;;;;;;;;;;5034973;28;20480;-58
2022/05/14 13:38:20;;;;;;;2.97;1.88;;;;;;;;;;5053187;28;20036;-59
2022/05/14 13:40:52;;;;;;;3.03;1.75;;;;;;;;;;5052873;28;20021;-59
2022/05/14 13:43:29;;;;;;;4.50;1.70;;;30.80;99.50;;;;;;5052417;28;20071;-59
2022/05/14 13:45:58;;;;;;;2.92;1.70;;;30.60;91.70;;;;;;5065928;28;20553;-59